Poa, Brazil
Current Conditions -  °F | °C
As of 2:00 PM on Saturday 25 Oct 2014 (Local Time) from SBGR Reporting Station
Overcast Overcast  
Wind Chill: 81°   Ceiling: 9000
Heat Index: 82°   Visibility: 6mi
Dew Point: 63°   Wind: 12mph
Humidity: 54%   Direction: 300°WNW
Pressure: 30"   Gusts: 26mph
Location:  23.52°S, 46.35°W
Report Text: SBGR 251600Z 30010G23KT 9999 SCT040 OVC090 27/17 Q1016
Loading
Personal Weather Stations






























Interactive Weather Map
Tropical Storm Tracking
New forecast layout! Learn more

10-Day Weather Forecast

Advertisements
Track Severe Weather on mobile